Time;durP1;ratioP1;P1;durP2;ratioP2;P2;SDS_P1;SDS_P2;PMS_P1;PMS_P2;Temp;Humidity;BMP_temperature;BMP_pressure;BME280_temperature;BME280_humidity;BME280_pressure;Samples;Min_cycle;Max_cycle;Signal;HPM_P1;HPM_P2
2021/05/15 00:02:24;;;;;;;17.07;13.35;;;;;;;13.37;76.63;99473.89;1705872;81;32302;-73
2021/05/15 00:04:50;;;;;;;16.40;12.98;;;;;;;13.34;76.90;99476.94;1737889;81;26097;-73
2021/05/15 00:07:16;;;;;;;18.12;12.73;;;;;;;13.34;76.90;99476.94;1737585;81;33015;-73
2021/05/15 00:09:42;;;;;;;14.55;12.98;;;;;;;13.32;76.72;99485.52;1737573;81;25640;-73
2021/05/15 00:12:08;;;;;;;15.65;13.22;;;;;;;13.30;76.98;99480.97;1737483;81;34711;-73
2021/05/15 00:14:34;;;;;;;14.98;12.43;;;;;;;13.27;76.65;99488.73;1737949;81;25478;-73
2021/05/15 00:17:01;;;;;;;15.72;12.00;;;;;;;13.26;76.87;99488.45;1736848;81;26314;-73
2021/05/15 00:19:27;;;;;;;13.70;11.43;;;;;;;13.23;76.62;99486.20;1736207;81;25562;-73
2021/05/15 00:21:53;;;;;;;15.80;12.43;;;;;;;13.22;76.76;99492.44;1736002;81;26387;-73
2021/05/15 00:24:19;;;;;;;13.95;12.20;;;;;;;13.19;76.53;99496.79;1735519;81;34881;-73
2021/05/15 00:26:45;;;;;;;15.28;12.43;;;;;;;13.20;76.76;99501.02;1737117;81;32356;-73
2021/05/15 00:29:10;;;;;;;15.28;12.13;;;;;;;13.18;76.74;99500.44;1737035;81;25900;-73
2021/05/15 00:31:36;;;;;;;15.23;12.35;;;;;;;13.17;76.71;99497.48;1735786;81;33047;-73
2021/05/15 00:34:03;;;;;;;15.68;13.25;;;;;;;13.17;76.90;99496.18;1737449;81;25716;-73
2021/05/15 00:36:28;;;;;;;16.77;13.40;;;;;;;13.14;76.83;99495.79;1734586;81;25532;-73
2021/05/15 00:38:54;;;;;;;14.43;12.65;;;;;;;13.12;77.02;99497.29;1737023;81;32284;-73
2021/05/15 00:41:20;;;;;;;17.10;13.00;;;;;;;13.12;77.13;99497.29;1738552;81;25591;-73
2021/05/15 00:46:33;;;;;;;14.78;13.13;;;;;;;13.07;77.28;99491.88;1737579;81;25156;-73
2021/05/15 00:48:58;;;;;;;16.25;13.48;;;;;;;13.05;77.13;99490.75;1737202;81;34663;-73
2021/05/15 00:51:24;;;;;;;16.23;13.48;;;;;;;13.01;77.40;99487.41;1737516;81;32244;-73
2021/05/15 00:53:50;;;;;;;15.93;14.10;;;;;;;12.98;77.22;99491.24;1736689;81;26310;-73
2021/05/15 00:56:17;;;;;;;15.70;14.00;;;;;;;12.97;77.34;99493.57;1737369;81;32872;-73
2021/05/15 00:58:45;;;;;;;16.87;14.13;;;;;;;12.97;77.45;99492.77;1736986;81;25278;-73
2021/05/15 01:01:11;;;;;;;17.40;14.63;;;;;;;12.95;77.43;99502.14;1736806;81;25602;-72
2021/05/15 01:03:37;;;;;;;18.77;15.75;;;;;;;12.92;77.58;99499.92;1738319;81;25493;-73
2021/05/15 01:06:04;;;;;;;16.67;14.70;;;;;;;12.91;77.49;99496.20;1738018;81;25712;-73
2021/05/15 01:08:30;;;;;;;18.00;15.53;;;;;;;12.88;77.51;99497.41;1735509;81;25526;-73
2021/05/15 01:10:56;;;;;;;17.62;15.53;;;;;;;12.87;77.50;99496.58;1736645;81;25822;-73
2021/05/15 01:13:27;;;;;;;20.10;15.85;;;;;;;12.88;77.52;99499.53;1736984;81;35195;-73
2021/05/15 01:15:51;;;;;;;16.63;13.73;;;;;;;12.87;77.47;99497.89;1737991;81;25637;-73
2021/05/15 01:18:16;;;;;;;18.52;14.63;;;;;;;12.87;77.42;99498.41;1736138;81;25633;-73
2021/05/15 01:20:42;;;;;;;16.62;12.43;;;;;;;12.88;77.36;99494.80;1736144;81;32678;-72
2021/05/15 01:23:11;;;;;;;15.53;11.97;;;;;;;12.88;77.31;99498.73;1737336;81;30031;-72
2021/05/15 01:25:37;;;;;;;14.63;11.33;;;;;;;12.85;77.45;99499.13;1711703;81;26234;-73
2021/05/15 01:28:03;;;;;;;13.18;11.03;;;;;;;12.86;77.44;99498.91;1737409;81;32369;-73
2021/05/15 01:30:32;;;;;;;14.43;11.10;;;;;;;12.87;77.30;99500.52;1736879;81;26216;-73
2021/05/15 01:32:57;;;;;;;12.47;10.98;;;;;;;12.86;77.26;99502.84;1737157;81;25589;-73
2021/05/15 01:35:23;;;;;;;15.50;11.90;;;;;;;12.89;77.34;99502.95;1736036;81;31258;-73
2021/05/15 01:37:49;;;;;;;14.90;11.70;;;;;;;12.91;77.37;99502.77;1737130;81;34645;-73
2021/05/15 01:40:16;;;;;;;12.85;10.70;;;;;;;12.93;77.30;99507.28;1737507;81;32662;-72
2021/05/15 01:42:41;;;;;;;15.48;11.80;;;;;;;12.95;77.58;99505.27;1736664;81;25605;-73
2021/05/15 01:45:08;;;;;;;13.18;11.20;;;;;;;12.94;77.35;99503.67;1735335;81;32938;-72
2021/05/15 01:47:36;;;;;;;14.45;9.90;;;;;;;12.95;77.26;99502.14;1737588;81;26494;-73
2021/05/15 01:50:05;;;;;;;15.83;9.58;;;;;;;12.97;77.63;99501.95;1736703;81;25591;-72
2021/05/15 01:52:31;;;;;;;12.25;9.73;;;;;;;12.96;77.48;99504.25;1734651;81;25564;-73
2021/05/15 01:54:57;;;;;;;11.45;8.40;;;;;;;12.94;77.49;99500.53;1736095;81;26117;-73
2021/05/15 01:57:22;;;;;;;13.85;8.85;;;;;;;12.92;77.34;99498.61;1736749;81;32440;-73
2021/05/15 01:59:48;;;;;;;10.07;8.07;;;;;;;12.90;77.36;99495.38;1735243;81;29297;-72
2021/05/15 02:02:14;;;;;;;9.28;7.53;;;;;;;12.87;77.33;99491.34;1737482;81;34604;-73
2021/05/15 02:04:40;;;;;;;10.55;8.25;;;;;;;12.87;77.39;99490.03;1737967;81;32279;-73
2021/05/15 02:07:06;;;;;;;10.05;8.08;;;;;;;12.87;77.19;99495.27;1737531;81;25570;-73
2021/05/15 02:09:31;;;;;;;11.35;8.15;;;;;;;12.89;77.48;99500.33;1735757;81;33067;-73
2021/05/15 02:11:57;;;;;;;11.03;7.50;;;;;;;12.88;77.26;99490.86;1735448;81;29391;-73
2021/05/15 02:14:23;;;;;;;11.12;7.45;;;;;;;12.90;77.10;99495.38;1737434;81;34618;-73
2021/05/15 02:16:49;;;;;;;12.50;7.80;;;;;;;12.88;77.21;99498.73;1736111;81;32253;-73
2021/05/15 02:19:14;;;;;;;9.98;7.83;;;;;;;12.85;77.21;99501.75;1736292;81;25869;-72
2021/05/15 02:21:41;;;;;;;13.18;8.23;;;;;;;12.83;77.23;99501.14;1736352;81;33067;-73
2021/05/15 02:24:08;;;;;;;9.88;7.58;;;;;;;12.84;77.29;99503.55;1737332;81;25609;-73
2021/05/15 02:26:34;;;;;;;9.10;7.37;;;;;;;12.83;77.25;99501.94;1736695;81;25568;-73
2021/05/15 02:28:59;;;;;;;10.40;7.08;;;;;;;12.81;77.45;99502.64;1737197;81;32859;-73
2021/05/15 02:31:25;;;;;;;11.85;7.37;;;;;;;12.78;77.50;99508.80;1736647;81;25999;-73
2021/05/15 02:33:51;;;;;;;10.82;7.35;;;;;;;12.79;77.36;99497.29;1736565;81;32756;-73
2021/05/15 02:36:17;;;;;;;9.78;6.80;;;;;;;12.81;77.19;99496.08;1736283;81;30256;-73
2021/05/15 02:38:42;;;;;;;10.25;6.80;;;;;;;12.83;77.18;99497.20;1735671;81;34755;-73
2021/05/15 02:41:08;;;;;;;11.65;7.15;;;;;;;12.85;77.37;99500.45;1735712;81;32886;-73
2021/05/15 02:43:34;;;;;;;11.03;7.10;;;;;;;12.84;77.28;99505.37;1736627;81;25934;-74
2021/05/15 02:45:59;;;;;;;9.23;6.47;;;;;;;12.82;77.13;99499.03;1736305;81;33562;-75
2021/05/15 02:48:25;;;;;;;8.77;6.57;;;;;;;12.84;77.20;99505.37;1736440;81;30521;-73
2021/05/15 02:50:52;;;;;;;9.70;5.90;;;;;;;12.85;77.15;99505.69;1737265;81;34630;-73
2021/05/15 02:53:18;;;;;;;9.05;6.05;;;;;;;12.86;77.06;99509.41;1735495;81;25545;-73
2021/05/15 02:55:45;;;;;;;8.68;6.05;;;;;;;12.88;76.94;99511.33;1710683;81;25551;-73
2021/05/15 02:58:16;;;;;;;7.47;5.53;;;;;;;12.89;77.32;99512.94;1737026;81;25811;-73
2021/05/15 03:00:40;;;;;;;16.35;5.78;;;;;;;12.88;77.04;99526.27;1736956;81;25498;-73
2021/05/15 03:03:06;;;;;;;8.98;5.78;;;;;;;12.88;76.95;99519.20;1736884;81;35262;-73
2021/05/15 03:05:31;;;;;;;8.75;6.17;;;;;;;12.89;76.94;99523.94;1737777;81;32318;-73
2021/05/15 03:07:57;;;;;;;9.85;5.65;;;;;;;12.90;76.80;99526.84;1737128;81;25458;-73
2021/05/15 03:10:26;;;;;;;9.83;6.42;;;;;;;12.94;76.81;99527.27;1735651;81;33031;-73
2021/05/15 03:12:54;;;;;;;10.93;5.55;;;;;;;12.95;76.84;99524.44;1736984;81;25557;-73
2021/05/15 03:15:22;;;;;;;9.80;5.72;;;;;;;12.94;76.83;99525.97;1737450;81;25448;-73
2021/05/15 03:17:48;;;;;;;9.23;6.12;;;;;;;12.95;76.65;99527.57;1737120;81;25216;-73
2021/05/15 03:20:19;;;;;;;10.15;6.22;;;;;;;12.93;76.53;99534.34;1736703;81;25597;-73
2021/05/15 03:22:46;;;;;;;10.48;6.12;;;;;;;12.95;76.48;99533.62;1735500;81;25519;-72
2021/05/15 03:25:13;;;;;;;7.53;5.35;;;;;;;12.99;76.45;99528.28;1737900;81;25555;-72
2021/05/15 03:27:39;;;;;;;10.43;5.65;;;;;;;13.01;76.50;99538.08;1735797;81;25166;-72
2021/05/15 03:30:09;;;;;;;8.65;5.90;;;;;;;13.04;76.45;99532.43;1738294;81;25627;-73
2021/05/15 03:32:36;;;;;;;10.48;6.72;;;;;;;13.03;76.20;99533.92;1736702;81;25533;-72
2021/05/15 03:35:04;;;;;;;11.00;6.00;;;;;;;13.03;76.06;99533.42;1738048;81;25570;-72
2021/05/15 03:37:30;;;;;;;8.70;6.45;;;;;;;13.06;76.04;99537.45;1709247;81;25657;-72
2021/05/15 03:39:56;;;;;;;9.05;7.20;;;;;;;13.07;75.96;99537.78;1737253;81;35139;-72
2021/05/15 03:42:22;;;;;;;11.30;6.78;;;;;;;13.07;75.75;99537.27;1732759;81;32277;-72
2021/05/15 03:44:47;;;;;;;8.83;5.90;;;;;;;13.05;75.78;99534.03;1736809;81;25986;-72
2021/05/15 03:47:13;;;;;;;9.48;6.22;;;;;;;13.04;75.71;99536.36;1736709;81;32382;-72
2021/05/15 03:49:39;;;;;;;10.30;6.33;;;;;;;13.03;75.68;99537.35;1711410;81;31219;-72
2021/05/15 03:52:04;;;;;;;11.10;6.25;;;;;;;13.02;75.55;99540.20;1738428;81;34683;-72
2021/05/15 03:54:30;;;;;;;9.80;6.30;;;;;;;13.03;75.51;99542.59;1736722;81;33639;-72
2021/05/15 03:56:56;;;;;;;10.23;6.15;;;;;;;13.04;75.39;99549.48;1736069;81;25636;-72
2021/05/15 03:59:23;;;;;;;9.15;5.65;;;;;;;13.04;75.33;99549.48;1736543;81;33467;-72
2021/05/15 04:01:49;;;;;;;11.65;6.25;;;;;;;13.04;75.25;99559.97;1735362;81;25689;-72
2021/05/15 04:04:15;;;;;;;8.78;5.97;;;;;;;13.04;75.17;99563.91;1739698;81;25561;-72
2021/05/15 04:06:41;;;;;;;12.53;7.08;;;;;;;13.03;75.21;99555.72;1737388;81;32712;-73
2021/05/15 04:09:06;;;;;;;8.90;6.00;;;;;;;13.04;75.13;99559.14;1736169;81;25624;-72
2021/05/15 04:11:38;;;;;;;10.13;7.25;;;;;;;13.02;75.13;99557.25;1737301;81;32389;-72
2021/05/15 04:14:21;;;;;;;10.80;7.37;;;;;;;13.05;75.16;99552.91;1737270;81;25659;-72
2021/05/15 04:19:18;;;;;;;12.78;7.95;;;;;;;13.06;75.06;99548.75;1733899;81;25657;-73
2021/05/15 04:21:44;;;;;;;13.55;8.05;;;;;;;13.05;75.04;99548.46;1737137;81;26190;-73
2021/05/15 04:24:10;;;;;;;12.37;7.95;;;;;;;13.03;75.12;99549.67;1737874;81;33024;-73
2021/05/15 04:26:36;;;;;;;11.48;7.50;;;;;;;13.04;75.14;99557.35;1736136;81;25659;-72
2021/05/15 04:29:03;;;;;;;11.12;8.40;;;;;;;13.03;75.46;99554.41;1737230;81;25727;-72
2021/05/15 04:31:29;;;;;;;10.90;7.92;;;;;;;13.03;75.26;99560.16;1736622;81;25718;-73
2021/05/15 04:33:55;;;;;;;14.00;8.40;;;;;;;13.01;75.34;99558.23;1734984;81;26313;-73
2021/05/15 04:36:21;;;;;;;11.75;8.55;;;;;;;13.02;75.50;99556.73;1735494;81;31507;-73
2021/05/15 04:38:47;;;;;;;9.83;8.05;;;;;;;13.04;75.28;99564.39;1738014;81;31479;-72
2021/05/15 04:41:13;;;;;;;14.85;9.25;;;;;;;13.01;75.49;99560.86;1737103;81;25535;-73
2021/05/15 04:43:38;;;;;;;12.05;8.75;;;;;;;13.01;75.25;99573.50;1736165;81;32709;-73
2021/05/15 04:46:04;;;;;;;12.40;9.33;;;;;;;13.01;75.22;99567.42;1735031;81;25904;-73
2021/05/15 04:48:30;;;;;;;10.88;9.00;;;;;;;12.96;75.15;99577.22;1735226;81;33072;-73
2021/05/15 04:50:56;;;;;;;10.03;7.90;;;;;;;12.94;75.12;99577.11;1734431;81;29723;-73
2021/05/15 04:53:22;;;;;;;10.00;7.70;;;;;;;12.93;75.23;99578.94;1735164;81;34594;-73
2021/05/15 04:55:48;;;;;;;11.53;6.75;;;;;;;12.92;75.12;99584.37;1734633;81;32585;-73
2021/05/15 04:58:13;;;;;;;8.73;6.17;;;;;;;12.88;75.12;99589.21;1737696;81;26057;-73
2021/05/15 05:00:39;;;;;;;8.90;6.25;;;;;;;12.78;74.71;99591.41;1735216;81;31538;-73
2021/05/15 05:03:05;;;;;;;9.03;5.87;;;;;;;12.68;74.71;99594.39;1736174;81;29284;-73
2021/05/15 05:05:31;;;;;;;10.28;6.47;;;;;;;12.61;74.60;99586.52;1711591;81;26421;-73
2021/05/15 05:07:57;;;;;;;8.95;6.75;;;;;;;12.56;74.67;99598.59;1736849;81;32264;-73
2021/05/15 05:10:23;;;;;;;9.45;6.50;;;;;;;12.51;75.07;99608.35;1736077;81;25885;-73
2021/05/15 05:12:49;;;;;;;9.35;6.10;;;;;;;12.47;74.78;99605.83;1735901;81;25698;-73
2021/05/15 05:15:14;;;;;;;12.93;6.73;;;;;;;12.47;74.93;99610.23;1735653;81;32044;-72
2021/05/15 05:17:40;;;;;;;7.60;5.80;;;;;;;12.42;75.00;99614.78;1716059;81;35083;-72
2021/05/15 05:20:08;;;;;;;11.63;6.33;;;;;;;12.39;74.95;99615.98;1737643;81;32189;-73
2021/05/15 05:22:34;;;;;;;10.95;5.92;;;;;;;12.41;75.09;99616.59;1735889;81;25701;-73
2021/05/15 05:25:00;;;;;;;8.48;5.47;;;;;;;12.44;75.14;99616.71;1735010;81;32845;-73
2021/05/15 05:27:26;;;;;;;7.63;5.20;;;;;;;12.45;75.00;99619.63;1735582;81;31370;-73
2021/05/15 05:29:51;;;;;;;9.05;5.90;;;;;;;12.44;74.98;99620.13;1735134;81;34623;-72
2021/05/15 05:32:18;;;;;;;9.38;5.10;;;;;;;12.43;74.79;99619.81;1735156;81;32723;-73
2021/05/15 05:34:44;;;;;;;7.60;4.80;;;;;;;12.43;74.69;99621.13;1736922;81;25621;-73
2021/05/15 05:37:11;;;;;;;7.70;4.93;;;;;;;12.42;74.64;99618.71;1732620;81;32236;-73
2021/05/15 05:39:37;;;;;;;7.08;4.65;;;;;;;12.39;74.56;99623.84;1734372;81;26606;-73
2021/05/15 05:42:04;;;;;;;8.95;4.80;;;;;;;12.41;74.61;99621.84;1736410;81;25563;-73
2021/05/15 05:44:30;;;;;;;8.18;4.53;;;;;;;12.49;74.49;99623.46;1715854;81;25656;-73
2021/05/15 05:46:57;;;;;;;6.25;4.80;;;;;;;12.52;74.36;99625.72;1736205;81;25554;-73
2021/05/15 05:49:23;;;;;;;7.47;4.22;;;;;;;12.52;74.11;99625.72;1733286;81;26561;-73
2021/05/15 05:51:49;;;;;;;8.77;4.70;;;;;;;12.52;74.12;99639.30;1732044;81;31235;-72
2021/05/15 05:54:15;;;;;;;7.83;4.72;;;;;;;12.54;74.00;99637.30;1733668;81;34724;-73
2021/05/15 05:56:40;;;;;;;11.40;4.95;;;;;;;12.58;73.84;99630.17;1738932;81;32224;-73
2021/05/15 05:59:06;;;;;;;6.05;4.10;;;;;;;12.61;73.65;99631.08;1734880;81;25569;-73
2021/05/15 06:01:32;;;;;;;7.73;4.57;;;;;;;12.63;73.31;99636.11;1735524;81;31269;-73
2021/05/15 06:03:58;;;;;;;4.57;3.47;;;;;;;12.62;73.27;99637.13;1736471;81;30883;-73
2021/05/15 06:06:24;;;;;;;5.00;3.72;;;;;;;12.68;73.33;99636.34;1736437;81;34743;-73
2021/05/15 06:08:49;;;;;;;12.40;3.70;;;;;;;12.72;72.84;99642.02;1737266;81;32288;-73
2021/05/15 06:11:15;;;;;;;5.17;3.65;;;;;;;12.68;72.55;99649.95;1733048;81;25598;-73
2021/05/15 06:13:41;;;;;;;4.30;3.33;;;;;;;12.66;72.57;99642.30;1735543;81;31498;-72
2021/05/15 06:16:08;;;;;;;5.93;3.20;;;;;;;12.65;72.38;99647.22;1733625;80;29265;-73
2021/05/15 06:18:33;;;;;;;5.22;4.05;;;;;;;12.60;72.23;99643.89;1736321;81;25617;-73
2021/05/15 06:20:59;;;;;;;6.58;3.35;;;;;;;12.59;72.43;99643.58;1735526;81;32817;-72
2021/05/15 06:23:26;;;;;;;9.05;4.67;;;;;;;12.60;72.54;99653.55;1733464;81;25606;-73
2021/05/15 06:25:52;;;;;;;4.25;3.27;;;;;;;12.61;72.49;99659.12;1736445;81;25611;-72
2021/05/15 06:28:19;;;;;;;5.20;3.35;;;;;;;12.57;72.46;99659.19;1733899;81;25564;-72
2021/05/15 06:30:45;;;;;;;5.58;3.50;;;;;;;12.55;72.48;99662.50;1735041;81;25569;-73
2021/05/15 06:33:11;;;;;;;9.58;3.62;;;;;;;12.59;72.46;99671.61;1738353;81;25582;-73
2021/05/15 06:35:37;;;;;;;7.92;4.05;;;;;;;12.69;72.41;99676.50;1734313;81;26612;-73
2021/05/15 06:38:05;;;;;;;8.08;4.00;;;;;;;12.70;72.18;99672.36;1708491;81;25523;-72
2021/05/15 06:40:33;;;;;;;6.25;3.55;;;;;;;12.72;72.11;99674.80;1710426;81;25666;-73
2021/05/15 06:42:58;;;;;;;6.25;3.47;;;;;;;12.74;72.23;99672.28;1735337;81;25547;-73
2021/05/15 06:45:24;;;;;;;6.03;4.10;;;;;;;12.83;72.25;99679.47;1735207;81;32753;-72
2021/05/15 06:47:53;;;;;;;6.47;3.77;;;;;;;12.93;72.06;99679.92;1734379;81;25581;-72
2021/05/15 06:50:19;;;;;;;8.03;4.92;;;;;;;12.94;71.74;99680.21;1734808;81;25792;-73
2021/05/15 06:52:44;;;;;;;6.67;4.40;;;;;;;12.94;71.36;99680.21;1736584;81;25665;-73
2021/05/15 06:55:11;;;;;;;5.25;3.42;;;;;;;12.95;71.39;99679.70;1738227;81;25578;-73
2021/05/15 06:57:37;;;;;;;4.87;3.75;;;;;;;12.95;71.11;99682.33;1734281;81;25476;-73
2021/05/15 07:00:05;;;;;;;5.42;4.03;;;;;;;12.92;71.09;99686.66;1734971;81;25593;-73
2021/05/15 07:02:32;;;;;;;5.95;3.47;;;;;;;12.91;70.98;99687.17;1734921;81;25649;-73
2021/05/15 07:04:57;;;;;;;7.72;4.12;;;;;;;12.90;71.09;99690.78;1736483;81;25627;-72
2021/05/15 07:07:23;;;;;;;5.42;3.87;;;;;;;12.98;70.83;99695.05;1737188;81;34688;-72
2021/05/15 07:09:52;;;;;;;4.85;3.70;;;;;;;12.98;70.50;99691.11;1709628;81;32427;-73
2021/05/15 07:12:18;;;;;;;5.25;4.22;;;;;;;13.01;70.91;99694.17;1738978;81;26131;-73
2021/05/15 07:14:45;;;;;;;6.75;4.20;;;;;;;13.17;71.08;99700.05;1738232;81;32407;-73
2021/05/15 07:17:11;;;;;;;6.00;3.75;;;;;;;13.22;70.46;99695.81;1737683;81;25705;-72
2021/05/15 07:19:37;;;;;;;5.00;3.92;;;;;;;13.24;70.53;99693.02;1736434;81;34828;-73
2021/05/15 07:22:02;;;;;;;6.00;3.60;;;;;;;13.31;70.36;99685.97;1734059;81;25233;-73
2021/05/15 07:24:28;;;;;;;6.47;4.53;;;;;;;13.38;70.36;99688.63;1737674;81;25723;-72
2021/05/15 07:26:54;;;;;;;5.80;4.25;;;;;;;13.48;70.50;99686.42;1737521;81;32918;-72
2021/05/15 07:29:20;;;;;;;5.93;4.00;;;;;;;13.59;70.36;99691.59;1736624;81;30076;-72
2021/05/15 07:31:45;;;;;;;5.12;3.92;;;;;;;13.71;70.12;99693.90;1733438;81;34597;-73
2021/05/15 07:34:11;;;;;;;5.25;3.58;;;;;;;13.80;68.97;99690.05;1737478;81;32375;-73
2021/05/15 07:36:37;;;;;;;5.25;4.12;;;;;;;13.87;69.38;99693.49;1738104;81;25973;-73
2021/05/15 07:39:05;;;;;;;9.03;4.08;;;;;;;14.00;69.34;99695.31;1733500;81;33093;-73
2021/05/15 07:41:31;;;;;;;4.50;3.33;;;;;;;14.10;68.23;99698.31;1732693;81;25599;-73
2021/05/15 07:43:57;;;;;;;4.53;3.52;;;;;;;14.15;68.63;99696.39;1734697;81;25520;-73
2021/05/15 07:46:23;;;;;;;4.28;3.30;;;;;;;14.25;68.31;99703.36;1730353;81;25357;-73
2021/05/15 07:48:49;;;;;;;4.00;3.00;;;;;;;14.30;67.51;99710.13;1734718;81;26079;-73
2021/05/15 07:51:23;;;;;;;4.87;2.60;;;;;;;14.28;66.90;99708.20;1731707;80;33196;-73
2021/05/15 07:53:51;;;;;;;4.85;2.85;;;;;;;14.37;66.84;99703.53;1734165;81;25511;-72
2021/05/15 07:56:17;;;;;;;5.58;3.15;;;;;;;14.41;66.75;99704.23;1732254;81;25592;-72
2021/05/15 07:58:44;;;;;;;5.15;3.20;;;;;;;14.44;66.74;99709.08;1733678;81;25554;-72
2021/05/15 08:01:11;;;;;;;7.47;4.25;;;;;;;14.45;66.66;99709.88;1731108;81;26287;-73
2021/05/15 08:03:37;;;;;;;5.85;3.10;;;;;;;14.59;67.16;99702.79;1733533;81;25572;-73
2021/05/15 08:06:03;;;;;;;5.53;3.30;;;;;;;14.77;66.02;99701.62;1734503;81;31713;-73
2021/05/15 08:08:30;;;;;;;6.70;3.50;;;;;;;14.92;66.38;99701.85;1732460;81;25181;-73
2021/05/15 08:10:56;;;;;;;6.10;2.70;;;;;;;15.08;65.97;99704.00;1730892;81;26306;-73
2021/05/15 08:13:23;;;;;;;3.37;2.30;;;;;;;15.25;65.53;99701.67;1732913;81;26134;-73
2021/05/15 08:15:51;;;;;;;3.85;2.50;;;;;;;15.32;64.35;99704.57;1698495;81;25779;-73
2021/05/15 08:18:17;;;;;;;5.67;2.40;;;;;;;15.34;64.22;99712.78;1732254;81;25565;-73
2021/05/15 08:20:43;;;;;;;4.67;2.55;;;;;;;15.22;62.61;99715.27;1731276;81;25214;-73
2021/05/15 08:23:09;;;;;;;5.33;3.08;;;;;;;15.12;63.73;99719.69;1734048;81;25180;-73
2021/05/15 08:25:35;;;;;;;5.58;2.67;;;;;;;15.16;64.16;99720.87;1731657;81;25561;-73
2021/05/15 08:28:06;;;;;;;3.90;2.87;;;;;;;15.13;63.79;99721.29;1700047;81;25191;-73
2021/05/15 08:30:31;;;;;;;5.05;2.52;;;;;;;15.09;63.52;99721.42;1730558;81;25724;-73
2021/05/15 08:32:57;;;;;;;3.90;2.35;;;;;;;15.19;63.62;99723.07;1732723;81;26449;-73
2021/05/15 08:35:25;;;;;;;5.35;2.60;;;;;;;15.34;62.18;99718.05;1731837;81;25187;-73
2021/05/15 08:37:53;;;;;;;3.35;2.10;;;;;;;15.40;62.11;99716.68;1732320;81;26310;-74
2021/05/15 08:40:21;;;;;;;4.87;2.17;;;;;;;15.51;62.33;99721.27;1732262;81;26396;-73
2021/05/15 08:42:47;;;;;;;4.72;2.42;;;;;;;15.71;63.02;99721.66;1736473;81;25661;-73
2021/05/15 08:45:16;;;;;;;3.05;1.98;;;;;;;15.82;61.43;99717.53;1736839;81;25602;-73
2021/05/15 08:47:44;;;;;;;2.30;2.08;;;;;;;15.84;61.27;99718.13;1735543;81;25547;-73
2021/05/15 08:50:15;;;;;;;5.03;1.75;;;;;;;15.87;60.72;99714.54;1736164;81;25663;-74
2021/05/15 08:52:45;;;;;;;3.15;2.00;;;;;;;15.86;59.21;99706.87;1736324;81;25601;-75
2021/05/15 08:55:16;;;;;;;9.48;2.05;;;;;;;15.79;59.90;99719.28;1737307;81;25572;-75
2021/05/15 08:57:43;;;;;;;4.25;1.95;;;;;;;15.73;59.44;99718.31;1734849;81;25884;-73
2021/05/15 09:00:26;;;;;;;3.95;2.42;;;;;;;15.74;58.93;99714.16;1734992;81;25609;-73
2021/05/15 09:02:57;;;;;;;5.58;2.52;;;;;;;15.85;58.76;99719.24;1733296;81;25638;-73
2021/05/15 09:05:28;;;;;;;6.92;2.12;;;;;;;16.02;58.91;99716.86;1735173;81;25537;-73
2021/05/15 09:07:57;;;;;;;3.25;2.25;;;;;;;16.11;57.15;99727.94;1713930;81;25885;-73
2021/05/15 09:10:28;;;;;;;3.02;2.27;;;;;;;16.10;57.39;99724.50;1715751;82;25159;-73
2021/05/15 09:13:18;;;;;;;7.15;2.37;;;;;;;16.09;57.09;99718.91;1715957;82;25706;-73
2021/05/15 09:15:51;;;;;;;4.03;2.30;;;;;;;16.12;57.29;99715.03;1716767;82;26245;-73
2021/05/15 09:18:22;;;;;;;5.53;2.60;;;;;;;16.13;56.32;99714.83;1716523;82;25922;-74
2021/05/15 09:20:52;;;;;;;3.75;2.17;;;;;;;16.20;57.12;99712.95;1718149;82;25189;-74
2021/05/15 09:23:27;;;;;;;3.02;1.82;;;;;;;16.36;56.14;99703.64;1716654;82;25590;-74
2021/05/15 09:26:04;;;;;;;2.55;2.00;;;;;;;16.50;56.78;99703.50;1715261;81;26106;-75
2021/05/15 09:28:51;;;;;;;5.35;2.67;;;;;;;16.64;53.61;99718.98;1716384;82;25618;-75
2021/05/15 09:31:32;;;;;;;4.72;2.60;;;;;;;16.64;53.61;99720.78;1715843;82;25651;-72
2021/05/15 09:34:03;;;;;;;7.22;2.45;;;;;;;16.60;52.76;99711.72;1716065;82;25647;-74
2021/05/15 09:36:38;;;;;;;;;;;;;;;16.58;52.34;99712.44;1719695;82;25217;-74
2021/05/15 09:39:21;;;;;;;4.15;2.70;;;;;;;16.61;53.24;99715.95;1714505;82;25684;-74
2021/05/15 09:41:57;;;;;;;5.90;2.85;;;;;;;16.67;53.12;99701.07;1714473;82;25644;-74
2021/05/15 09:44:26;;;;;;;5.67;2.47;;;;;;;16.67;53.17;99710.31;1715906;81;25571;-74
2021/05/15 09:46:54;;;;;;;8.35;2.47;;;;;;;16.67;52.77;99710.31;1716989;82;25671;-74
2021/05/15 09:49:27;;;;;;;3.92;2.22;;;;;;;16.70;50.96;99706.73;1716346;82;25641;-74
2021/05/15 09:51:59;;;;;;;6.55;2.40;;;;;;;16.63;52.57;99719.98;1715752;82;25577;-74
2021/05/15 09:54:29;;;;;;;6.72;3.25;;;;;;;16.78;52.03;99722.30;1715804;82;26272;-74
2021/05/15 09:57:13;;;;;;;7.92;3.02;;;;;;;16.90;51.76;99721.03;1714169;82;25618;-75
2021/05/15 09:59:45;;;;;;;4.95;2.90;;;;;;;16.98;51.86;99710.17;1716794;82;25206;-73
2021/05/15 10:02:14;;;;;;;5.10;2.17;;;;;;;17.16;50.80;99712.47;1717576;82;25588;-73
2021/05/15 10:04:45;;;;;;;6.45;2.40;;;;;;;17.25;50.90;99715.10;1718656;82;26471;-72
2021/05/15 10:07:25;;;;;;;6.62;2.50;;;;;;;17.43;49.98;99729.58;1717339;82;25659;-73
2021/05/15 10:09:48;;;;;;;4.15;2.52;;;;;;;17.52;47.55;99724.77;1716575;82;25525;-72
2021/05/15 10:12:14;;;;;;;4.80;2.47;;;;;;;17.47;48.63;99720.67;1715528;82;25205;-73
2021/05/15 10:14:40;;;;;;;7.58;1.70;;;;;;;17.51;49.16;99717.86;1716135;82;34757;-72
2021/05/15 10:17:07;;;;;;;5.05;2.62;;;;;;;17.58;47.65;99728.34;1717434;82;32304;-73
2021/05/15 10:19:33;;;;;;;5.00;2.70;;;;;;;17.59;48.59;99720.17;1716692;82;25622;-73
2021/05/15 10:22:00;;;;;;;7.53;2.50;;;;;;;17.72;49.28;99721.30;1715777;82;25626;-73
2021/05/15 10:24:30;;;;;;;5.37;2.30;;;;;;;17.82;49.70;99717.34;1714986;82;25573;-73
2021/05/15 10:27:10;;;;;;;6.28;2.70;;;;;;;17.97;49.46;99717.15;1715573;82;25620;-73
2021/05/15 10:29:53;;;;;;;;;;;;;;;18.04;48.58;99716.25;1716812;82;25943;-73
2021/05/15 10:32:23;;;;;;;5.22;2.72;;;;;;;17.96;47.53;99731.42;1716845;82;25548;-74
2021/05/15 10:35:00;;;;;;;;;;;;;;;18.04;47.78;99728.16;1717175;82;25532;-74
2021/05/15 10:37:32;;;;;;;4.70;2.37;;;;;;;18.15;48.55;99727.34;1716928;82;25660;-73
2021/05/15 10:39:58;;;;;;;6.20;2.55;;;;;;;18.33;47.82;99735.17;1717088;82;25745;-75
2021/05/15 10:42:30;;;;;;;4.47;2.33;;;;;;;18.31;46.30;99743.85;1716729;82;32898;-74
2021/05/15 10:44:57;;;;;;;8.68;2.70;;;;;;;18.30;45.79;99733.48;1715834;82;25600;-74
2021/05/15 10:47:23;;;;;;;5.25;2.77;;;;;;;18.19;45.65;99725.84;1715576;82;25619;-73
2021/05/15 10:49:50;;;;;;;5.85;2.47;;;;;;;18.07;46.46;99730.34;1716485;82;31169;-74
2021/05/15 10:52:18;;;;;;;6.20;2.90;;;;;;;18.06;46.33;99732.67;1716172;82;26410;-73
2021/05/15 10:54:51;;;;;;;4.45;2.80;;;;;;;17.93;46.39;99733.72;1716189;82;25178;-73
2021/05/15 10:57:23;;;;;;;7.40;2.72;;;;;;;17.82;46.69;99729.23;1715538;82;25763;-73
2021/05/15 11:00:05;;;;;;;4.85;2.40;;;;;;;17.72;46.25;99741.12;1719081;82;25706;-74
2021/05/15 11:02:37;;;;;;;4.03;2.25;;;;;;;17.67;45.78;99730.42;1731516;81;25587;-73
2021/05/15 11:05:13;;;;;;;5.50;2.58;;;;;;;17.82;46.15;99731.88;1732653;81;25225;-74
2021/05/15 11:07:40;;;;;;;7.65;2.40;;;;;;;18.00;47.02;99734.92;1736097;81;25512;-74
2021/05/15 11:10:13;;;;;;;6.35;2.47;;;;;;;17.98;45.82;99735.17;1715144;82;25640;-74
2021/05/15 11:12:46;;;;;;;6.45;2.35;;;;;;;18.11;46.64;99732.80;1670012;83;26537;-76
2021/05/15 11:15:18;;;;;;;7.67;2.45;;;;;;;18.30;44.76;99724.22;1704004;83;25560;-74
2021/05/15 11:18:00;;;;;;;6.55;1.87;;;;;;;18.36;45.48;99726.77;1734411;81;25657;-74
2021/05/15 11:20:26;;;;;;;4.87;2.20;;;;;;;18.44;44.52;99738.81;1737803;81;25204;-74
2021/05/15 11:22:54;;;;;;;4.70;2.37;;;;;;;18.57;44.33;99725.86;1732931;81;26666;-74
2021/05/15 11:25:28;;;;;;;7.35;2.58;;;;;;;18.66;43.53;99745.66;1735490;81;25677;-74
2021/05/15 11:28:04;;;;;;;5.85;2.60;;;;;;;18.58;44.15;99730.94;1713203;81;25518;-74
2021/05/15 11:30:42;;;;;;;3.40;1.92;;;;;;;18.58;43.98;99721.67;1736461;81;26257;-72
2021/05/15 11:33:16;;;;;;;8.05;3.00;;;;;;;18.58;43.86;99718.23;1737411;81;25590;-74
2021/05/15 11:35:45;;;;;;;7.25;2.37;;;;;;;18.63;43.95;99721.78;1733992;81;26268;-72
2021/05/15 11:38:17;;;;;;;4.70;2.15;;;;;;;18.79;44.53;99722.10;1664565;83;25506;-72